createdAt,value
2018-09-29T00:01:20.666Z,6.67
2018-09-29T00:03:51.143Z,5.33
2018-09-29T00:06:22.014Z,5.40
2018-09-29T00:08:52.233Z,8.75
2018-09-29T00:11:23.219Z,11.60
2018-09-29T00:13:54.044Z,6.33
2018-09-29T00:16:31.216Z,8.93
2018-09-29T00:19:01.356Z,5.25
2018-09-29T00:21:32.433Z,6.08
2018-09-29T00:24:03.516Z,7.83
2018-09-29T00:26:34.183Z,8.10
2018-09-29T00:29:04.267Z,4.35
2018-09-29T00:31:35.648Z,10.82
2018-09-29T00:34:06.390Z,8.33
2018-09-29T00:36:36.644Z,6.83
2018-09-29T00:39:08.590Z,6.55
2018-09-29T00:41:38.738Z,7.72
2018-09-29T00:44:09.028Z,6.97
2018-09-29T00:46:39.627Z,5.58
2018-09-29T00:49:10.375Z,4.85
2018-09-29T00:51:41.227Z,6.45
2018-09-29T00:54:11.952Z,8.93
2018-09-29T00:56:42.548Z,7.25
2018-09-29T00:59:12.994Z,4.70
2018-09-29T01:01:43.472Z,9.05
2018-09-29T01:04:14.145Z,7.73
2018-09-29T01:06:44.385Z,8.03
2018-09-29T01:09:15.101Z,9.00
2018-09-29T01:11:45.474Z,7.40
2018-09-29T01:14:16.528Z,5.58
2018-09-29T01:16:47.276Z,7.92
2018-09-29T01:19:18.490Z,7.50
2018-09-29T01:21:49.704Z,10.82
2018-09-29T01:24:20.150Z,8.93
2018-09-29T01:26:50.625Z,5.55
2018-09-29T01:29:21.309Z,8.45
2018-09-29T01:31:52.127Z,6.67
2018-09-29T01:34:22.262Z,6.95
2018-09-29T01:36:52.714Z,10.45
2018-09-29T01:39:23.129Z,6.03
2018-09-29T01:41:53.418Z,6.97
2018-09-29T01:44:23.800Z,9.68
2018-09-29T01:46:54.207Z,9.43
2018-09-29T01:49:24.637Z,9.50
2018-09-29T01:51:55.361Z,8.50
2018-09-29T01:54:25.717Z,8.08
2018-09-29T01:56:56.488Z,5.40
2018-09-29T01:59:26.700Z,5.80
2018-09-29T02:01:57.080Z,4.40
2018-09-29T02:04:27.494Z,9.73
2018-09-29T02:06:57.385Z,9.05
2018-09-29T02:09:27.965Z,7.83
2018-09-29T02:11:58.773Z,8.00
2018-09-29T02:14:29.064Z,9.08
2018-09-29T02:17:00.193Z,6.35
2018-09-29T02:19:30.387Z,10.35
2018-09-29T02:22:01.780Z,7.12
2018-09-29T02:24:31.982Z,4.28
2018-09-29T02:27:03.271Z,4.35
2018-09-29T02:29:34.147Z,5.55
2018-09-29T02:32:04.644Z,3.02
2018-09-29T02:34:35.093Z,10.82
2018-09-29T02:37:05.277Z,6.10
2018-09-29T02:39:35.368Z,7.97
2018-09-29T02:42:05.606Z,5.40
2018-09-29T02:44:35.537Z,5.08
2018-09-29T02:47:06.303Z,5.90
2018-09-29T02:49:36.390Z,6.92
2018-09-29T02:52:06.787Z,6.85
2018-09-29T02:54:43.527Z,4.08
2018-09-29T02:57:15.084Z,5.90
2018-09-29T02:59:45.356Z,5.92
2018-09-29T03:02:15.406Z,4.70
2018-09-29T03:04:45.576Z,6.25
2018-09-29T03:07:16.096Z,5.35
2018-09-29T03:09:46.476Z,7.42
2018-09-29T03:12:17.607Z,9.23
2018-09-29T03:14:48.415Z,5.90
2018-09-29T03:17:25.356Z,3.90
2018-09-29T03:19:55.789Z,8.75
2018-09-29T03:22:26.232Z,7.33
2018-09-29T03:24:56.496Z,5.20
2018-09-29T03:27:26.638Z,5.15
2018-09-29T03:29:57.351Z,4.10
2018-09-29T03:32:27.749Z,5.15
2018-09-29T03:34:58.201Z,6.37
2018-09-29T03:37:29.286Z,7.30
2018-09-29T03:40:00.290Z,5.17
2018-09-29T03:42:30.486Z,3.05
2018-09-29T03:45:01.196Z,9.18
2018-09-29T03:47:31.601Z,7.62
2018-09-29T03:50:02.777Z,4.05
2018-09-29T03:52:33.394Z,3.12
2018-09-29T03:55:03.646Z,5.78
2018-09-29T03:57:34.165Z,4.95
2018-09-29T04:00:04.383Z,9.57
2018-09-29T04:02:34.849Z,2.87
2018-09-29T04:05:05.504Z,3.58
2018-09-29T04:07:36.090Z,6.03
2018-09-29T04:10:06.395Z,4.72
2018-09-29T04:12:36.801Z,3.20
2018-09-29T04:15:07.343Z,4.40
2018-09-29T04:17:37.796Z,5.22
2018-09-29T04:20:09.216Z,7.42
2018-09-29T04:22:39.791Z,8.55
2018-09-29T04:25:10.135Z,2.77
2018-09-29T04:27:40.493Z,5.80
2018-09-29T04:30:10.856Z,3.47
2018-09-29T04:32:42.693Z,6.30
2018-09-29T04:35:13.656Z,7.47
2018-09-29T04:37:45.012Z,6.45
2018-09-29T04:40:15.828Z,4.87
2018-09-29T04:42:46.726Z,13.60
2018-09-29T04:45:16.954Z,2.92
2018-09-29T04:47:47.787Z,4.35
2018-09-29T04:50:18.748Z,4.97
2018-09-29T04:52:49.627Z,6.03
2018-09-29T04:55:20.022Z,7.55
2018-09-29T04:57:50.642Z,12.13
2018-09-29T05:00:21.026Z,4.92
2018-09-29T05:02:51.973Z,6.58
2018-09-29T05:05:22.977Z,4.95
2018-09-29T05:07:53.219Z,3.83
2018-09-29T05:10:23.725Z,6.78
2018-09-29T05:12:54.060Z,5.45
2018-09-29T05:15:24.437Z,5.53
2018-09-29T05:17:55.588Z,5.92
2018-09-29T05:20:26.016Z,6.33
2018-09-29T05:22:56.701Z,5.17
2018-09-29T05:25:27.080Z,5.92
2018-09-29T05:27:57.300Z,7.42
2018-09-29T05:30:27.577Z,6.72
2018-09-29T05:32:57.729Z,10.25
2018-09-29T05:35:28.207Z,5.65
2018-09-29T05:37:59.701Z,6.45
2018-09-29T05:40:30.498Z,7.27
2018-09-29T05:43:00.808Z,8.00
2018-09-29T05:45:31.070Z,7.33
2018-09-29T05:48:01.978Z,5.08
2018-09-29T05:50:32.290Z,4.22
2018-09-29T05:53:02.621Z,8.28
2018-09-29T05:55:36.099Z,7.58
2018-09-29T05:58:06.447Z,4.60
2018-09-29T06:00:37.671Z,6.65
2018-09-29T06:03:07.765Z,7.58
2018-09-29T06:05:38.033Z,9.65
2018-09-29T06:08:08.508Z,6.62
2018-09-29T06:10:38.307Z,7.47
2018-09-29T06:13:08.398Z,9.03
2018-09-29T06:15:38.196Z,7.22
2018-09-29T06:18:08.276Z,5.27
2018-09-29T06:20:44.933Z,7.50
2018-09-29T06:23:15.082Z,5.50
2018-09-29T06:25:45.234Z,4.37
2018-09-29T06:28:15.126Z,5.67
2018-09-29T06:30:45.086Z,6.05
2018-09-29T06:33:15.261Z,7.85
2018-09-29T06:35:45.183Z,8.58
2018-09-29T06:38:15.368Z,4.45
2018-09-29T06:40:45.873Z,4.60
2018-09-29T06:43:16.978Z,5.37
2018-09-29T06:45:46.974Z,4.55
2018-09-29T06:48:17.202Z,4.90
2018-09-29T06:50:47.164Z,5.62
2018-09-29T06:53:17.125Z,5.97
2018-09-29T06:55:47.325Z,5.35
2018-09-29T06:58:18.221Z,5.37
2018-09-29T07:00:48.361Z,5.28
2018-09-29T07:03:18.540Z,6.78
2018-09-29T07:05:49.218Z,6.20
2018-09-29T07:08:22.589Z,5.37
2018-09-29T07:10:52.705Z,5.47
2018-09-29T07:13:23.337Z,6.65
2018-09-29T07:15:53.462Z,6.67
2018-09-29T07:18:23.708Z,5.00
2018-09-29T07:20:54.302Z,4.65
2018-09-29T07:23:24.121Z,5.03
2018-09-29T07:25:54.110Z,4.75
2018-09-29T07:28:24.159Z,4.92
2018-09-29T07:30:54.475Z,6.40
2018-09-29T07:33:24.634Z,5.15
2018-09-29T07:35:54.935Z,6.00
2018-09-29T07:38:29.061Z,4.53
2018-09-29T07:40:59.567Z,3.95
2018-09-29T07:43:30.487Z,4.42
2018-09-29T07:46:00.318Z,5.55
2018-09-29T07:48:30.230Z,12.35
2018-09-29T07:51:00.669Z,6.42
2018-09-29T07:53:30.817Z,6.92
2018-09-29T07:56:01.140Z,5.78
2018-09-29T07:58:31.610Z,4.05
2018-09-29T08:01:01.632Z,5.80
2018-09-29T08:03:32.072Z,5.62
2018-09-29T08:06:02.080Z,6.37
2018-09-29T08:08:32.205Z,9.63
2018-09-29T10:09:48.248Z,0.00
2018-09-29T10:12:18.035Z,0.00
2018-09-29T10:14:47.836Z,0.00
2018-09-29T10:19:31.697Z,0.00
2018-09-29T10:22:01.753Z,0.60
2018-09-29T10:24:32.214Z,0.00
2018-09-29T10:27:02.974Z,0.00
2018-09-29T10:29:33.157Z,0.00
2018-09-29T10:32:03.134Z,0.00
2018-09-29T10:34:33.323Z,0.00
2018-09-29T10:37:03.357Z,0.00
2018-09-29T10:39:34.207Z,0.00
2018-09-29T10:44:43.892Z,0.00
2018-09-29T10:47:18.903Z,0.00
2018-09-29T10:49:48.839Z,0.10
2018-09-29T10:52:18.765Z,0.00
2018-09-29T10:54:48.653Z,0.00
2018-09-29T10:57:18.377Z,0.00
2018-09-29T10:59:48.749Z,0.00
2018-09-29T11:02:18.646Z,0.35
2018-09-29T11:04:50.056Z,43.20
2018-09-29T11:08:45.107Z,0.00
2018-09-29T11:13:56.156Z,0.00
2018-09-29T11:18:23.967Z,0.00
2018-09-29T11:50:55.097Z,0.00
2018-09-29T11:55:05.653Z,0.00
2018-09-29T11:57:35.989Z,0.00
2018-09-29T12:00:06.477Z,0.00
2018-09-29T12:02:36.738Z,0.00
2018-09-29T12:05:11.216Z,0.00
2018-09-29T12:07:42.232Z,0.85
2018-09-29T12:10:12.144Z,0.00
2018-09-29T12:12:42.953Z,0.00
2018-09-29T12:15:14.116Z,0.00
2018-09-29T12:17:44.424Z,0.00
2018-09-29T12:20:14.358Z,0.00
2018-09-29T12:22:44.611Z,0.00
2018-09-29T12:25:14.491Z,0.00
2018-09-29T12:27:44.432Z,0.00
2018-09-29T12:30:14.237Z,0.10
2018-09-29T12:32:44.353Z,0.00
2018-09-29T12:35:14.344Z,0.00
2018-09-29T12:37:44.458Z,0.00
2018-09-29T12:40:14.763Z,0.00
2018-09-29T12:42:45.103Z,0.00
2018-09-29T12:45:16.299Z,0.00
2018-09-29T12:47:46.188Z,0.00
2018-09-29T12:50:16.368Z,0.00
2018-09-29T12:52:46.650Z,0.00
2018-09-29T12:55:16.925Z,0.00
2018-09-29T12:57:47.137Z,0.00
2018-09-29T13:00:17.240Z,0.00
2018-09-29T13:02:47.261Z,0.00
2018-09-29T13:05:17.426Z,0.00
2018-09-29T13:07:48.249Z,0.00
2018-09-29T13:10:18.414Z,0.00
2018-09-29T13:12:48.733Z,0.00
2018-09-29T13:15:19.158Z,0.00
2018-09-29T13:17:49.962Z,0.00
2018-09-29T13:20:20.182Z,0.00
2018-09-29T13:22:50.626Z,0.00
2018-09-29T13:25:21.253Z,0.00
2018-09-29T13:27:52.182Z,0.00
2018-09-29T13:30:22.531Z,0.08
2018-09-29T13:32:53.693Z,0.00
2018-09-29T13:35:24.471Z,0.10
2018-09-29T13:37:54.785Z,0.00
2018-09-29T13:40:25.095Z,0.20
2018-09-29T13:42:55.491Z,0.00
2018-09-29T13:45:27.170Z,0.00
2018-09-29T13:47:58.094Z,0.00
2018-09-29T13:50:28.304Z,0.75
2018-09-29T13:52:58.723Z,0.20
2018-09-29T13:55:28.796Z,0.10
2018-09-29T13:57:59.166Z,0.10
2018-09-29T14:00:29.785Z,0.00
2018-09-29T14:03:00.166Z,0.10
2018-09-29T14:05:30.686Z,0.10
2018-09-29T14:08:02.233Z,0.10
2018-09-29T14:10:33.199Z,0.10
2018-09-29T14:13:04.020Z,0.00
2018-09-29T14:15:34.629Z,0.10
2018-09-29T14:18:05.258Z,0.00
2018-09-29T14:20:35.526Z,0.10
2018-09-29T14:23:06.098Z,0.10
2018-09-29T14:25:36.951Z,0.10
2018-09-29T14:28:08.047Z,0.10
2018-09-29T14:30:38.397Z,0.20
2018-09-29T14:33:09.215Z,0.10
2018-09-29T14:35:40.100Z,0.10
2018-09-29T14:38:10.469Z,0.10
2018-09-29T14:40:40.367Z,0.10
2018-09-29T14:43:11.194Z,0.10
2018-09-29T14:45:41.968Z,0.10
2018-09-29T14:48:13.075Z,0.15
2018-09-29T14:50:43.491Z,0.20
2018-09-29T14:53:14.681Z,0.10
2018-09-29T14:55:45.487Z,0.20
2018-09-29T14:58:15.727Z,5.40
2018-09-29T15:00:45.887Z,0.10
2018-09-29T15:03:16.691Z,0.00
2018-09-29T15:05:47.234Z,0.00
2018-09-29T15:08:17.574Z,0.00
2018-09-29T15:10:48.336Z,0.10
2018-09-29T15:13:18.805Z,0.00
2018-09-29T15:15:49.459Z,0.00
2018-09-29T15:18:19.743Z,0.00
2018-09-29T15:20:49.987Z,0.00
2018-09-29T15:23:20.264Z,0.00
2018-09-29T15:25:51.244Z,0.00
2018-09-29T15:28:21.917Z,0.00
2018-09-29T15:30:52.501Z,0.00
2018-09-29T15:33:22.502Z,0.20
2018-09-29T15:35:52.799Z,0.00
2018-09-29T15:38:23.872Z,0.00
2018-09-29T15:40:53.985Z,0.00
2018-09-29T15:43:24.346Z,0.00
2018-09-29T15:45:54.484Z,0.00
2018-09-29T15:48:25.271Z,0.00
2018-09-29T15:50:55.273Z,0.00
2018-09-29T15:53:25.373Z,0.00
2018-09-29T15:55:55.281Z,0.00
2018-09-29T15:58:25.520Z,0.00
2018-09-29T16:00:56.315Z,0.00
2018-09-29T16:03:26.737Z,0.00
2018-09-29T16:05:57.748Z,0.00
2018-09-29T16:08:27.937Z,0.00
2018-09-29T16:10:58.369Z,0.00
2018-09-29T16:13:28.669Z,0.00
2018-09-29T16:15:59.079Z,0.00
2018-09-29T16:18:29.550Z,0.00
2018-09-29T16:20:59.724Z,0.00
2018-09-29T16:23:29.986Z,0.00
2018-09-29T16:26:04.188Z,0.00
2018-09-29T16:28:34.556Z,0.00
2018-09-29T16:31:05.678Z,0.00
2018-09-29T16:33:36.111Z,0.00
2018-09-29T16:36:06.707Z,0.00
2018-09-29T16:38:37.369Z,0.00
2018-09-29T16:41:07.983Z,0.00
2018-09-29T16:43:38.576Z,0.00
2018-09-29T16:46:08.738Z,0.00
2018-09-29T16:48:39.142Z,0.00
2018-09-29T16:51:09.226Z,0.00
2018-09-29T16:53:39.544Z,0.00
2018-09-29T16:56:10.504Z,0.00
2018-09-29T16:58:41.035Z,0.00
2018-09-29T17:01:11.709Z,0.00
2018-09-29T17:03:42.167Z,0.00
2018-09-29T17:06:12.397Z,12.82
2018-09-29T17:08:42.429Z,8.08
2018-09-29T17:11:12.770Z,0.00
2018-09-29T17:13:43.385Z,0.00
2018-09-29T17:16:14.629Z,0.00
2018-09-29T17:18:44.846Z,0.00
2018-09-29T17:21:15.552Z,0.00
2018-09-29T17:23:46.192Z,0.00
2018-09-29T17:26:16.477Z,0.00
2018-09-29T17:28:47.330Z,0.00
2018-09-29T17:31:17.634Z,0.00
2018-09-29T17:33:48.093Z,0.00
2018-09-29T17:36:18.332Z,0.62
2018-09-29T17:38:48.391Z,0.00
2018-09-29T17:41:18.564Z,0.00
2018-09-29T17:43:48.943Z,0.00
2018-09-29T17:46:19.146Z,0.00
2018-09-29T17:48:49.582Z,0.00
2018-09-29T17:51:20.299Z,0.00
2018-09-29T17:53:50.598Z,0.00
2018-09-29T17:56:20.420Z,1.67
2018-09-29T17:58:50.810Z,0.00
2018-09-29T18:01:21.213Z,0.00
2018-09-29T18:03:51.818Z,0.00
2018-09-29T18:06:22.118Z,0.00
2018-09-29T18:08:52.589Z,0.00
2018-09-29T18:11:23.055Z,0.00
2018-09-29T18:13:53.502Z,0.08
2018-09-29T18:16:24.117Z,16.95
2018-09-29T18:18:54.389Z,2.65
2018-09-29T18:21:25.105Z,0.00
2018-09-29T18:23:55.198Z,0.00
2018-09-29T18:26:26.394Z,0.00
2018-09-29T18:28:57.174Z,0.00
2018-09-29T18:31:27.610Z,0.00
2018-09-29T18:33:59.038Z,0.00
2018-09-29T18:36:29.308Z,0.00
2018-09-29T18:38:59.588Z,0.00
2018-09-29T18:41:34.114Z,0.00
2018-09-29T18:44:05.084Z,0.00
2018-09-29T18:46:35.313Z,0.00
2018-09-29T18:49:05.468Z,0.00
2018-09-29T18:51:35.715Z,0.00
2018-09-29T18:54:06.710Z,0.00
2018-09-29T18:56:36.915Z,0.00
2018-09-29T18:59:07.417Z,0.00
2018-09-29T19:01:38.324Z,0.00
2018-09-29T19:04:08.943Z,0.00
2018-09-29T19:06:39.083Z,0.00
2018-09-29T19:09:12.139Z,0.00
2018-09-29T19:11:43.352Z,0.00
2018-09-29T19:14:14.603Z,0.00
2018-09-29T19:16:44.845Z,0.00
2018-09-29T19:19:15.738Z,0.00
2018-09-29T19:21:46.216Z,0.00
2018-09-29T19:24:16.717Z,0.00
2018-09-29T19:26:47.176Z,0.00
2018-09-29T19:29:17.753Z,0.00
2018-09-29T19:31:48.261Z,0.00
2018-09-29T19:34:18.316Z,0.00
2018-09-29T19:36:48.513Z,0.00
2018-09-29T19:39:18.668Z,0.00
2018-09-29T19:41:50.391Z,0.00
2018-09-29T19:44:20.713Z,0.00
2018-09-29T19:46:51.067Z,0.00
2018-09-29T19:49:21.754Z,0.00
2018-09-29T19:51:52.222Z,0.00
2018-09-29T19:54:22.212Z,0.00
2018-09-29T19:56:53.260Z,0.00
2018-09-29T19:59:23.599Z,0.00
2018-09-29T20:01:54.153Z,0.00
2018-09-29T20:04:24.491Z,0.00
2018-09-29T20:06:54.678Z,0.00
2018-09-29T20:09:24.807Z,0.00
2018-09-29T20:11:55.024Z,0.00
2018-09-29T20:14:25.605Z,0.00
2018-09-29T20:16:56.301Z,0.00
2018-09-29T20:19:26.335Z,0.00
2018-09-29T20:21:56.627Z,0.00
2018-09-29T20:24:27.287Z,0.00
2018-09-29T20:26:57.823Z,0.00
2018-09-29T20:29:28.049Z,0.00
2018-09-29T20:31:58.336Z,0.00
2018-09-29T20:34:28.486Z,0.00
2018-09-29T20:36:58.391Z,0.00
2018-09-29T20:39:28.348Z,0.00
2018-09-29T20:41:58.391Z,0.00
2018-09-29T20:47:03.219Z,0.00
2018-09-29T20:49:33.707Z,0.00
2018-09-29T20:52:03.970Z,0.00
2018-09-29T20:54:34.104Z,0.00
2018-09-29T20:57:04.950Z,0.00
2018-09-29T20:59:35.147Z,0.00
2018-09-29T21:02:05.403Z,0.00
2018-09-29T21:04:36.800Z,0.00
2018-09-29T21:07:06.894Z,0.00
2018-09-29T21:09:37.171Z,0.00
2018-09-29T21:12:07.360Z,0.00
2018-09-29T21:14:37.510Z,0.00
2018-09-29T21:17:07.726Z,0.00
2018-09-29T21:22:13.909Z,0.00
2018-09-29T21:24:44.299Z,0.00
2018-09-29T21:27:14.548Z,0.00
2018-09-29T21:29:45.282Z,0.00
2018-09-29T21:32:15.658Z,0.00
2018-09-29T21:34:45.900Z,0.00
2018-09-29T21:37:16.200Z,0.00
2018-09-29T21:39:47.059Z,0.00
2018-09-29T21:42:21.499Z,0.00
2018-09-29T21:44:58.121Z,0.00
2018-09-29T21:47:28.550Z,0.00
2018-09-29T21:49:59.848Z,0.00
2018-09-29T21:52:30.041Z,0.00
2018-09-29T21:55:00.493Z,0.00
2018-09-29T22:00:05.796Z,0.00
2018-09-29T22:02:36.050Z,0.00
2018-09-29T22:05:06.569Z,0.00
2018-09-29T22:10:12.078Z,0.00
2018-09-29T22:12:41.952Z,0.00
2018-09-29T22:15:12.264Z,0.00
2018-09-29T22:17:42.471Z,0.00
2018-09-29T22:20:13.599Z,0.00
2018-09-29T22:22:43.909Z,0.00
2018-09-29T22:25:14.015Z,0.00
2018-09-29T22:27:44.535Z,0.00
2018-09-29T22:30:14.860Z,0.00
2018-09-29T22:32:49.038Z,0.00
2018-09-29T22:35:19.090Z,0.00
2018-09-29T22:37:49.470Z,0.10
2018-09-29T22:40:20.434Z,0.10
2018-09-29T22:42:51.185Z,0.10
2018-09-29T22:45:22.061Z,0.10
2018-09-29T22:47:52.172Z,0.10
2018-09-29T22:50:22.461Z,0.10
2018-09-29T22:52:53.007Z,0.10
2018-09-29T22:55:23.242Z,0.10
2018-09-29T22:57:53.467Z,0.10
2018-09-29T23:00:23.851Z,0.10
2018-09-29T23:02:54.017Z,0.10
2018-09-29T23:05:24.181Z,0.10
2018-09-29T23:07:54.753Z,0.10
2018-09-29T23:10:25.581Z,0.10
2018-09-29T23:12:56.327Z,0.10
2018-09-29T23:15:26.524Z,0.10
2018-09-29T23:17:56.864Z,0.10
2018-09-29T23:20:27.528Z,0.10
2018-09-29T23:22:57.586Z,0.10
2018-09-29T23:25:28.757Z,0.10
2018-09-29T23:27:58.988Z,0.10
2018-09-29T23:30:28.851Z,0.10
2018-09-29T23:32:59.542Z,0.10
2018-09-29T23:35:30.196Z,0.10
2018-09-29T23:38:00.560Z,0.10
2018-09-29T23:40:30.882Z,0.10
2018-09-29T23:43:01.226Z,0.10
2018-09-29T23:45:31.473Z,0.10
2018-09-29T23:48:02.720Z,0.15
2018-09-29T23:50:33.477Z,0.10
2018-09-29T23:53:03.965Z,0.10
2018-09-29T23:55:35.110Z,0.10
2018-09-29T23:58:05.566Z,0.10
